Time;durP1;ratioP1;P1;durP2;ratioP2;P2;SDS_P1;SDS_P2;PMS_P1;PMS_P2;Temp;Humidity;BMP_temperature;BMP_pressure;BME280_temperature;BME280_humidity;BME280_pressure;Samples;Min_cycle;Max_cycle;Signal;HPM_P1;HPM_P2
2023/05/05 00:03:36;;;;;;;8.15;4.60;;;21.50;75.10;;;;;;10136301;28;20016;-70
2023/05/05 00:08:27;;;;;;;5.30;4.05;;;21.50;75.40;;;;;;10128606;28;20024;-69
2023/05/05 00:13:19;;;;;;;8.30;4.50;;;21.40;75.70;;;;;;10137087;28;20024;-67
2023/05/05 00:18:11;;;;;;;8.10;4.93;;;21.40;76.00;;;;;;10139283;28;20411;-61
2023/05/05 00:23:02;;;;;;;5.50;3.85;;;21.20;76.40;;;;;;10137111;28;20497;-64
2023/05/05 00:27:52;;;;;;;7.25;4.65;;;21.20;76.90;;;;;;10137964;28;20108;-61
2023/05/05 00:32:46;;;;;;;5.60;4.80;;;21.10;77.10;;;;;;10136917;28;20226;-61
2023/05/05 00:37:36;;;;;;;6.68;4.03;;;21.00;77.70;;;;;;10126162;28;20063;-59
2023/05/05 00:42:36;;;;;;;7.65;4.30;;;21.00;78.00;;;;;;10169535;28;20077;-60
2023/05/05 00:47:27;;;;;;;4.80;4.15;;;21.00;78.20;;;;;;10166369;28;20016;-66
2023/05/05 00:52:18;;;;;;;12.38;4.70;;;21.00;78.40;;;;;;10127632;28;20048;-63
2023/05/05 00:57:09;;;;;;;6.60;5.05;;;21.10;78.70;;;;;;10140172;28;20115;-68
2023/05/05 01:02:00;;;;;;;5.07;3.75;;;21.00;79.10;;;;;;10158694;28;20449;-60
2023/05/05 01:06:53;;;;;;;7.68;4.55;;;20.90;79.60;;;;;;10146401;28;20111;-68
2023/05/05 01:11:54;;;;;;;10.23;4.38;;;20.80;79.80;;;;;;10157563;28;20020;-59
2023/05/05 01:16:58;;;;;;;5.35;4.38;;;20.90;80.30;;;;;;10158779;28;20075;-60
2023/05/05 01:21:55;;;;;;;5.55;3.85;;;20.80;80.60;;;;;;10167678;28;20033;-55
2023/05/05 01:27:04;;;;;;;5.15;4.38;;;20.70;80.90;;;;;;10142765;28;20104;-59
2023/05/05 01:32:13;;;;;;;5.47;4.05;;;20.60;81.10;;;;;;10130523;28;20065;-66
2023/05/05 01:37:13;;;;;;;6.25;4.28;;;20.60;81.30;;;;;;10145530;28;20088;-59
2023/05/05 01:42:08;;;;;;;4.45;3.90;;;20.60;81.50;;;;;;10177811;28;20024;-57
2023/05/05 01:47:01;;;;;;;6.28;4.63;;;20.40;82.00;;;;;;10171046;28;20048;-52
2023/05/05 01:51:54;;;;;;;7.60;4.32;;;20.50;82.40;;;;;;10159192;28;20132;-54
2023/05/05 01:56:47;;;;;;;6.30;4.20;;;20.60;82.40;;;;;;10141170;28;20123;-57
2023/05/05 02:01:40;;;;;;;9.70;4.63;;;20.40;82.50;;;;;;10141522;28;20029;-59
2023/05/05 02:06:32;;;;;;;10.82;5.32;;;20.40;83.10;;;;;;10140002;28;20028;-61
2023/05/05 02:11:22;;;;;;;7.10;4.03;;;20.30;83.60;;;;;;10164000;28;20396;-57
2023/05/05 02:16:14;;;;;;;6.40;4.10;;;20.30;83.90;;;;;;10163776;28;20036;-57
2023/05/05 02:21:06;;;;;;;5.03;4.53;;;20.30;84.00;;;;;;10168914;28;20289;-57
2023/05/05 02:26:05;;;;;;;8.65;4.80;;;20.20;84.20;;;;;;10140296;28;20039;-57
2023/05/05 02:30:58;;;;;;;8.32;4.80;;;19.90;84.70;;;;;;10140025;28;20033;-58
2023/05/05 02:35:50;;;;;;;7.45;5.22;;;19.80;85.10;;;;;;10139272;28;20036;-65
2023/05/05 02:40:43;;;;;;;8.15;5.05;;;19.80;85.20;;;;;;10163762;28;20032;-58
2023/05/05 02:45:34;;;;;;;8.98;5.72;;;19.80;85.40;;;;;;10170929;28;20029;-54
2023/05/05 02:50:26;;;;;;;6.18;4.90;;;19.90;85.40;;;;;;10137266;28;20043;-58
2023/05/05 02:55:16;;;;;;;9.25;4.95;;;19.90;85.70;;;;;;10138659;28;20050;-61
2023/05/05 03:00:18;;;;;;;7.13;4.40;;;19.80;85.80;;;;;;10138430;28;20115;-54
2023/05/05 03:05:16;;;;;;;10.60;4.78;;;19.60;86.60;;;;;;10128635;28;20032;-53
2023/05/05 03:10:10;;;;;;;6.43;4.60;;;19.60;86.70;;;;;;10154321;28;20051;-57
2023/05/05 03:15:02;;;;;;;11.52;4.78;;;19.40;87.20;;;;;;10128950;28;20071;-60
2023/05/05 03:19:54;;;;;;;8.20;4.78;;;19.40;87.30;;;;;;10132698;28;20109;-61
2023/05/05 03:24:49;;;;;;;9.70;4.65;;;19.50;86.90;;;;;;10139600;28;20541;-61
2023/05/05 03:29:39;;;;;;;7.15;4.38;;;19.40;87.30;;;;;;10148466;28;20039;-61
2023/05/05 03:34:30;;;;;;;6.72;4.57;;;19.50;87.40;;;;;;10151056;28;20059;-59
2023/05/05 03:39:21;;;;;;;6.40;4.45;;;19.40;87.40;;;;;;10167840;28;20036;-52
2023/05/05 03:44:11;;;;;;;5.90;4.30;;;19.50;87.30;;;;;;10163458;28;20035;-56
2023/05/05 03:49:02;;;;;;;5.35;4.03;;;19.50;87.60;;;;;;10142364;28;20041;-51
2023/05/05 03:53:52;;;;;;;5.15;3.88;;;19.50;87.40;;;;;;10146711;28;20051;-59
2023/05/05 03:58:43;;;;;;;5.13;3.58;;;19.40;87.40;;;;;;10132189;28;20062;-57
2023/05/05 04:03:34;;;;;;;5.00;3.45;;;19.40;87.50;;;;;;10137958;28;20025;-54
2023/05/05 04:08:24;;;;;;;5.38;3.70;;;19.40;87.70;;;;;;10137276;28;20116;-53
2023/05/05 04:13:15;;;;;;;5.75;3.40;;;19.50;87.70;;;;;;10163504;28;20107;-52
2023/05/05 04:18:05;;;;;;;6.00;3.83;;;19.40;87.80;;;;;;10155675;28;20069;-56
2023/05/05 04:22:56;;;;;;;5.43;3.70;;;19.50;87.90;;;;;;10149178;28;20582;-55
2023/05/05 04:27:47;;;;;;;4.97;3.90;;;19.50;87.70;;;;;;10138427;28;20029;-53
2023/05/05 04:32:37;;;;;;;7.05;3.58;;;19.50;87.90;;;;;;10142524;28;20103;-53
2023/05/05 04:37:28;;;;;;;6.25;3.78;;;19.50;87.80;;;;;;10152736;28;20032;-55
2023/05/05 04:42:18;;;;;;;4.20;3.15;;;19.60;88.20;;;;;;10180945;28;20024;-54
2023/05/05 04:47:09;;;;;;;5.78;3.42;;;19.60;88.10;;;;;;10164675;28;20056;-54
2023/05/05 04:52:00;;;;;;;4.68;3.38;;;19.50;88.30;;;;;;10149956;28;20040;-53
2023/05/05 04:56:50;;;;;;;4.90;3.80;;;19.50;89.20;;;;;;10140976;28;20115;-52
2023/05/05 05:01:41;;;;;;;6.25;3.85;;;19.30;89.30;;;;;;10160965;28;20078;-56
2023/05/05 05:06:32;;;;;;;5.78;3.67;;;19.20;89.80;;;;;;10141275;28;20405;-56
2023/05/05 05:11:23;;;;;;;5.30;3.63;;;19.30;90.00;;;;;;10161663;28;20293;-54
2023/05/05 05:16:14;;;;;;;7.97;4.70;;;19.30;90.00;;;;;;10145849;28;20306;-56
2023/05/05 05:21:05;;;;;;;8.57;4.43;;;19.40;90.20;;;;;;10144390;28;20396;-52
2023/05/05 05:25:56;;;;;;;7.25;4.30;;;19.30;90.40;;;;;;10143741;28;20028;-57
2023/05/05 05:30:46;;;;;;;6.60;4.07;;;19.40;90.40;;;;;;10124985;28;20567;-56
2023/05/05 05:35:37;;;;;;;4.22;3.53;;;19.50;90.50;;;;;;10142624;28;20071;-54
2023/05/05 05:40:28;;;;;;;4.70;3.83;;;19.60;90.70;;;;;;10175363;28;20040;-54
2023/05/05 05:45:18;;;;;;;5.28;4.05;;;19.60;90.80;;;;;;10163942;28;20033;-55
2023/05/05 05:50:09;;;;;;;6.03;4.20;;;19.70;90.80;;;;;;10142461;28;20140;-57
2023/05/05 05:55:00;;;;;;;6.05;4.57;;;19.80;90.90;;;;;;10144826;28;20021;-54
2023/05/05 05:59:51;;;;;;;6.28;4.45;;;19.80;90.80;;;;;;10143419;28;20048;-61
2023/05/05 06:04:41;;;;;;;7.53;4.07;;;19.80;90.90;;;;;;10145595;28;20036;-60
2023/05/05 06:09:32;;;;;;;6.85;3.50;;;19.90;90.90;;;;;;10155711;28;20084;-61
2023/05/05 06:14:22;;;;;;;6.25;3.55;;;19.80;90.90;;;;;;10168182;28;20039;-60
2023/05/05 06:19:13;;;;;;;3.40;3.10;;;19.90;91.00;;;;;;10173407;28;20127;-64
2023/05/05 06:24:04;;;;;;;4.95;3.17;;;19.90;91.00;;;;;;10151263;28;20080;-54
2023/05/05 06:28:55;;;;;;;4.97;3.13;;;20.00;91.00;;;;;;10145017;28;20386;-62
2023/05/05 06:33:45;;;;;;;7.10;3.45;;;20.00;91.10;;;;;;10140501;28;20020;-69
2023/05/05 06:38:36;;;;;;;4.35;2.33;;;20.00;91.20;;;;;;10131976;28;20028;-64
2023/05/05 06:43:28;;;;;;;3.58;2.63;;;20.00;91.20;;;;;;10140680;28;20401;-62
2023/05/05 06:48:19;;;;;;;9.98;3.47;;;20.20;91.10;;;;;;10119502;28;20413;-62
2023/05/05 06:53:09;;;;;;;5.57;3.13;;;20.10;91.10;;;;;;10114969;28;20026;-64
2023/05/05 06:58:00;;;;;;;5.28;3.42;;;20.10;91.20;;;;;;10126796;28;20044;-65
2023/05/05 07:02:51;;;;;;;7.50;3.58;;;20.20;91.20;;;;;;10126703;28;20089;-62
2023/05/05 07:07:51;;;;;;;4.00;2.65;;;20.60;91.00;;;;;;10129638;28;20483;-67
2023/05/05 07:12:42;;;;;;;3.55;2.40;;;20.70;91.10;;;;;;10128543;28;20009;-63
2023/05/05 07:17:33;;;;;;;4.03;2.63;;;20.80;91.00;;;;;;10126941;28;20036;-67
2023/05/05 07:22:23;;;;;;;3.92;2.08;;;20.80;91.20;;;;;;10124738;28;20028;-63
2023/05/05 07:27:14;;;;;;;3.97;2.60;;;20.90;91.20;;;;;;10124490;28;20032;-61
2023/05/05 07:32:05;;;;;;;5.07;2.78;;;21.20;91.00;;;;;;10130147;28;20162;-60
2023/05/05 07:36:55;;;;;;;4.43;2.05;;;21.30;90.90;;;;;;10143993;28;20116;-60
2023/05/05 07:41:46;;;;;;;5.80;2.17;;;21.20;91.00;;;;;;10137360;28;20028;-64
2023/05/05 07:46:37;;;;;;;4.95;2.47;;;21.20;91.10;;;;;;10156376;28;20686;-60
2023/05/05 07:51:27;;;;;;;4.10;1.95;;;21.30;91.00;;;;;;10151394;28;20040;-61
2023/05/05 07:56:18;;;;;;;3.50;1.80;;;21.40;91.10;;;;;;10133883;28;20509;-56
2023/05/05 08:01:10;;;;;;;4.18;1.90;;;21.60;90.90;;;;;;10126527;28;20047;-61
2023/05/05 08:06:09;;;;;;;3.70;2.20;;;21.70;91.20;;;;;;10120675;28;20029;-61
2023/05/05 08:11:00;;;;;;;3.58;1.92;;;21.90;91.00;;;;;;10134227;28;20379;-61
2023/05/05 08:15:52;;;;;;;3.28;2.00;;;22.00;90.90;;;;;;10143811;28;20028;-63
2023/05/05 08:20:42;;;;;;;4.15;2.70;;;21.90;90.80;;;;;;10148981;28;20067;-67
2023/05/05 08:25:33;;;;;;;4.10;2.10;;;22.00;90.70;;;;;;10146670;28;20466;-68
2023/05/05 08:30:24;;;;;;;3.17;2.03;;;22.30;90.60;;;;;;10121108;28;20067;-65
2023/05/05 08:35:14;;;;;;;3.35;2.15;;;22.60;90.40;;;;;;10139722;28;20051;-56
2023/05/05 08:40:06;;;;;;;6.18;1.98;;;22.70;90.50;;;;;;10144207;28;20040;-59
2023/05/05 08:44:57;;;;;;;2.58;1.85;;;22.60;90.40;;;;;;10133856;28;20019;-63
2023/05/05 08:49:48;;;;;;;3.22;2.00;;;22.60;90.30;;;;;;10140642;28;20243;-58
2023/05/05 08:54:45;;;;;;;3.17;1.70;;;22.60;90.40;;;;;;10133264;28;20024;-59
2023/05/05 08:59:37;;;;;;;3.83;2.42;;;22.90;90.20;;;;;;10133363;28;20036;-61
2023/05/05 09:04:27;;;;;;;3.05;2.10;;;22.90;90.20;;;;;;10138072;28;20032;-61
2023/05/05 09:09:19;;;;;;;2.35;1.80;;;22.90;90.40;;;;;;10133806;28;20213;-58
2023/05/05 09:14:09;;;;;;;3.20;1.85;;;22.80;90.40;;;;;;10135558;28;20458;-58
2023/05/05 09:19:02;;;;;;;2.60;1.83;;;22.80;90.30;;;;;;10113148;28;20175;-59
2023/05/05 09:24:13;;;;;;;3.65;2.10;;;22.70;90.40;;;;;;10131779;28;20020;-62
2023/05/05 09:29:04;;;;;;;4.38;2.25;;;22.90;90.30;;;;;;10135656;28;20036;-59
2023/05/05 09:33:59;;;;;;;2.20;1.77;;;23.00;90.30;;;;;;10139111;28;20090;-62
2023/05/05 09:39:04;;;;;;;3.42;2.92;;;23.20;90.40;;;;;;10134118;28;20064;-63
2023/05/05 09:43:55;;;;;;;5.55;2.28;;;23.20;90.40;;;;;;10128547;28;20036;-62
2023/05/05 09:48:46;;;;;;;4.03;1.92;;;23.20;90.30;;;;;;10135409;28;20052;-59
2023/05/05 09:53:41;;;;;;;4.30;2.90;;;23.40;90.10;;;;;;10129851;28;20021;-60
2023/05/05 09:58:31;;;;;;;4.47;2.30;;;23.60;89.70;;;;;;10131522;28;20502;-59
2023/05/05 10:03:22;;;;;;;4.53;2.58;;;23.70;89.70;;;;;;10131949;28;20029;-58
2023/05/05 10:08:13;;;;;;;3.00;2.08;;;23.80;89.80;;;;;;10127993;28;20087;-57
2023/05/05 10:13:03;;;;;;;2.25;1.90;;;24.00;89.20;;;;;;10133938;28;20036;-56
2023/05/05 10:17:56;;;;;;;2.78;2.00;;;24.10;89.20;;;;;;10111353;28;20029;-52
2023/05/05 10:22:52;;;;;;;3.35;2.17;;;24.20;88.80;;;;;;10131429;28;20040;-57
2023/05/05 10:27:49;;;;;;;2.33;1.95;;;24.30;88.30;;;;;;10133543;28;20024;-59
2023/05/05 10:32:44;;;;;;;2.15;1.77;;;24.60;87.70;;;;;;10129030;28;20116;-61
2023/05/05 10:37:36;;;;;;;2.88;2.13;;;24.60;87.40;;;;;;10133339;28;20372;-60
2023/05/05 10:42:27;;;;;;;2.38;1.85;;;24.70;86.80;;;;;;10131111;28;20056;-60
2023/05/05 10:47:20;;;;;;;4.05;1.98;;;24.50;86.70;;;;;;10129904;28;20028;-64
2023/05/05 10:52:10;;;;;;;3.92;2.13;;;24.80;86.40;;;;;;10135136;28;20060;-60
2023/05/05 10:57:04;;;;;;;5.90;2.30;;;24.50;86.70;;;;;;10127953;28;20029;-59
2023/05/05 11:01:55;;;;;;;3.58;2.17;;;24.60;86.50;;;;;;10140111;28;20028;-60
2023/05/05 11:07:09;;;;;;;4.05;2.83;;;24.60;86.70;;;;;;10176202;28;20040;-59
2023/05/05 11:12:04;;;;;;;4.05;2.05;;;24.80;85.80;;;;;;10120197;28;20048;-59
2023/05/05 11:16:55;;;;;;;2.45;1.90;;;24.80;85.80;;;;;;10126160;28;20032;-58
2023/05/05 11:22:01;;;;;;;5.43;3.35;;;24.50;86.10;;;;;;10119992;28;20039;-59
2023/05/05 11:26:52;;;;;;;3.40;2.20;;;24.00;86.20;;;;;;10122462;28;20433;-60
2023/05/05 11:31:43;;;;;;;2.42;1.77;;;23.90;86.20;;;;;;10125403;28;20036;-63
2023/05/05 11:36:39;;;;;;;3.83;1.98;;;24.20;85.60;;;;;;10140492;28;20086;-62
2023/05/05 11:41:41;;;;;;;2.72;2.13;;;24.60;84.80;;;;;;10136507;28;20064;-63
2023/05/05 11:46:31;;;;;;;3.10;2.50;;;25.20;84.50;;;;;;10115300;28;20031;-59
2023/05/05 11:51:23;;;;;;;3.97;2.42;;;25.40;84.10;;;;;;10129754;28;20052;-60
2023/05/05 11:56:21;;;;;;;2.85;2.08;;;25.70;83.90;;;;;;10132683;28;20044;-60
2023/05/05 12:01:12;;;;;;;4.65;3.00;;;25.50;83.60;;;;;;10135934;28;20036;-61
2023/05/05 12:06:04;;;;;;;3.55;2.80;;;25.00;84.20;;;;;;10131433;28;20141;-60
2023/05/05 12:11:06;;;;;;;4.07;2.45;;;25.10;84.20;;;;;;10132762;28;20020;-60
2023/05/05 12:16:11;;;;;;;3.80;2.40;;;25.50;83.30;;;;;;10114655;28;20032;-61
2023/05/05 12:21:17;;;;;;;3.55;2.28;;;26.00;83.30;;;;;;10130508;28;20038;-60
2023/05/05 12:26:24;;;;;;;2.88;2.17;;;25.80;83.10;;;;;;10115786;28;20032;-58
2023/05/05 12:31:15;;;;;;;3.10;2.30;;;25.60;83.70;;;;;;10132467;28;20020;-60
2023/05/05 12:36:09;;;;;;;3.70;2.28;;;26.00;83.10;;;;;;10134587;28;20521;-58
2023/05/05 12:40:59;;;;;;;3.53;2.25;;;25.70;83.60;;;;;;10132995;28;20063;-63
2023/05/05 12:46:05;;;;;;;3.05;2.10;;;26.40;83.00;;;;;;10135026;28;20025;-65
2023/05/05 12:51:09;;;;;;;5.22;2.05;;;26.60;82.10;;;;;;10132932;28;20052;-68
2023/05/05 12:56:00;;;;;;;7.00;2.45;;;26.10;82.00;;;;;;10139080;28;20039;-62
2023/05/05 13:01:09;;;;;;;2.17;1.67;;;25.60;82.80;;;;;;10139820;28;20124;-59
2023/05/05 13:06:00;;;;;;;5.53;3.30;;;25.30;82.50;;;;;;10121774;28;20032;-63
2023/05/05 13:10:57;;;;;;;2.83;2.53;;;25.50;82.30;;;;;;10144661;28;20020;-68
2023/05/05 13:15:48;;;;;;;4.28;2.10;;;27.20;82.80;;;;;;10135281;28;20032;-64
2023/05/05 13:20:38;;;;;;;4.20;2.10;;;29.00;81.00;;;;;;10138619;28;20041;-66
2023/05/05 13:25:29;;;;;;;4.18;2.35;;;29.40;80.00;;;;;;10140227;28;20189;-61
2023/05/05 13:30:20;;;;;;;3.63;2.28;;;29.10;79.60;;;;;;10138433;28;20063;-64
2023/05/05 13:35:10;;;;;;;2.95;2.33;;;28.80;79.50;;;;;;10140034;28;20051;-62
2023/05/05 13:40:02;;;;;;;5.13;2.60;;;27.10;80.70;;;;;;10137120;28;20418;-65
2023/05/05 13:44:52;;;;;;;2.28;2.08;;;26.00;81.30;;;;;;10134637;28;20059;-66
2023/05/05 13:49:43;;;;;;;4.32;2.53;;;25.20;81.40;;;;;;10135828;28;20524;-61
2023/05/05 13:54:34;;;;;;;3.35;2.13;;;24.50;81.80;;;;;;10139122;28;20024;-59
2023/05/05 13:59:25;;;;;;;4.35;2.80;;;24.10;81.70;;;;;;10136456;28;20093;-59
2023/05/05 14:04:15;;;;;;;4.88;1.98;;;23.80;81.70;;;;;;10138069;28;20516;-62
2023/05/05 14:09:06;;;;;;;2.92;2.22;;;23.50;82.10;;;;;;10144280;28;20028;-58
2023/05/05 14:13:58;;;;;;;3.30;1.98;;;23.30;82.00;;;;;;10138624;28;20048;-57
2023/05/05 14:18:49;;;;;;;2.40;2.20;;;23.10;82.20;;;;;;10142752;28;20028;-59
2023/05/05 14:23:40;;;;;;;4.28;2.40;;;22.80;82.80;;;;;;10139686;28;20038;-61
2023/05/05 14:28:30;;;;;;;4.72;2.60;;;22.30;83.70;;;;;;10137238;28;20024;-62
2023/05/05 14:33:21;;;;;;;3.83;2.05;;;20.90;88.10;;;;;;10136748;28;20029;-66
2023/05/05 14:38:11;;;;;;;3.63;2.88;;;19.20;92.40;;;;;;10140008;28;20037;-61
2023/05/05 14:43:02;;;;;;;4.65;2.30;;;18.20;94.10;;;;;;10140049;28;20036;-60
2023/05/05 14:47:53;;;;;;;3.63;2.33;;;18.00;94.70;;;;;;10139249;28;20456;-61
2023/05/05 14:52:43;;;;;;;4.57;2.55;;;17.90;95.40;;;;;;10133750;28;20115;-61
2023/05/05 14:57:34;;;;;;;5.45;3.60;;;18.10;95.70;;;;;;10135907;28;20574;-60
2023/05/05 15:02:25;;;;;;;2.67;2.08;;;18.40;96.20;;;;;;10124748;28;20117;-60
2023/05/05 15:07:15;;;;;;;2.78;1.75;;;18.90;95.90;;;;;;10136054;28;20575;-59
2023/05/05 15:12:06;;;;;;;2.72;1.90;;;18.70;96.40;;;;;;10137010;28;20020;-60
2023/05/05 15:16:57;;;;;;;3.22;1.45;;;18.70;96.70;;;;;;10125547;28;20482;-62
2023/05/05 15:21:52;;;;;;;3.03;1.63;;;19.00;96.80;;;;;;10139859;28;20036;-60
2023/05/05 15:26:43;;;;;;;2.85;1.63;;;19.20;97.20;;;;;;10135855;28;20056;-62
2023/05/05 15:31:34;;;;;;;3.17;2.00;;;19.60;97.40;;;;;;10133313;28;20032;-64
2023/05/05 15:36:24;;;;;;;3.38;1.70;;;19.80;97.70;;;;;;10136730;28;20028;-62
2023/05/05 15:41:15;;;;;;;3.28;1.40;;;19.80;97.90;;;;;;10139431;28;20111;-63
2023/05/05 15:46:06;;;;;;;1.77;1.58;;;19.70;98.40;;;;;;10135475;28;20052;-60
2023/05/05 15:50:56;;;;;;;2.35;1.63;;;19.20;99.00;;;;;;10134777;28;20473;-62
2023/05/05 15:55:47;;;;;;;2.97;1.40;;;19.20;99.40;;;;;;10138910;28;20028;-60
2023/05/05 16:00:38;;;;;;;3.45;1.40;;;19.20;99.80;;;;;;10125843;28;20048;-66
2023/05/05 16:05:28;;;;;;;2.00;1.40;;;19.30;99.90;;;;;;10113185;28;20046;-59
2023/05/05 16:10:19;;;;;;;3.90;2.10;;;19.20;99.90;;;;;;10127127;28;20037;-67
2023/05/05 16:15:10;;;;;;;3.08;1.20;;;19.10;99.90;;;;;;10128819;28;20037;-62
2023/05/05 16:20:01;;;;;;;2.10;1.35;;;19.20;99.90;;;;;;10129349;28;20053;-63
2023/05/05 16:24:51;;;;;;;2.80;1.60;;;19.10;99.90;;;;;;10153073;28;20521;-64
2023/05/05 16:29:42;;;;;;;3.85;1.70;;;19.20;99.90;;;;;;10141040;28;20024;-66
2023/05/05 16:34:33;;;;;;;5.05;1.45;;;19.00;99.90;;;;;;10121886;28;20078;-67
2023/05/05 16:39:24;;;;;;;1.45;1.00;;;19.00;99.90;;;;;;10149042;28;20048;-65
2023/05/05 16:44:15;;;;;;;2.17;1.45;;;19.10;99.90;;;;;;10142190;28;20400;-59
2023/05/05 16:49:05;;;;;;;1.98;1.20;;;19.20;99.90;;;;;;10138170;28;20049;-60
2023/05/05 16:53:56;;;;;;;2.90;1.73;;;19.40;99.90;;;;;;10129860;28;20013;-65
2023/05/05 16:58:46;;;;;;;2.33;1.10;;;19.40;99.90;;;;;;10137936;28;20501;-65
2023/05/05 17:03:38;;;;;;;5.63;1.23;;;19.20;99.90;;;;;;10142225;28;20032;-68
2023/05/05 17:08:28;;;;;;;2.28;1.38;;;19.30;99.90;;;;;;10137748;28;20035;-71
2023/05/05 17:13:19;;;;;;;1.67;1.23;;;19.10;99.90;;;;;;10140231;28;20009;-60
2023/05/05 17:18:10;;;;;;;3.25;1.50;;;19.10;99.90;;;;;;10141668;28;20574;-60
2023/05/05 17:23:03;;;;;;;3.17;2.05;;;19.20;99.90;;;;;;10128389;28;20111;-66
2023/05/05 17:27:55;;;;;;;2.08;1.27;;;19.10;99.90;;;;;;10128721;28;20044;-68
2023/05/05 17:32:46;;;;;;;3.33;1.20;;;19.10;99.90;;;;;;10130446;28;20032;-70
2023/05/05 17:37:36;;;;;;;7.53;3.10;;;19.00;99.90;;;;;;10130804;28;20040;-59
2023/05/05 17:42:31;;;;;;;4.53;2.72;;;19.00;99.90;;;;;;10122358;28;20025;-73
2023/05/05 17:47:23;;;;;;;5.03;1.88;;;19.10;99.90;;;;;;10133127;28;20024;-53
2023/05/05 17:52:14;;;;;;;5.45;2.42;;;19.00;99.90;;;;;;10106714;28;20053;-56
2023/05/05 17:57:04;;;;;;;3.25;1.90;;;19.00;99.90;;;;;;10135655;28;20090;-53
2023/05/05 18:01:55;;;;;;;3.50;2.45;;;18.80;99.90;;;;;;10118993;28;20035;-59
2023/05/05 18:06:45;;;;;;;5.18;2.30;;;18.80;99.90;;;;;;10136383;28;20020;-63
2023/05/05 18:11:36;;;;;;;2.40;1.83;;;18.80;99.90;;;;;;10135846;28;20028;-62
2023/05/05 18:16:27;;;;;;;2.60;1.60;;;18.70;99.90;;;;;;10133842;28;20021;-61
2023/05/05 18:21:17;;;;;;;4.70;1.73;;;18.80;99.90;;;;;;10133506;28;20043;-56
2023/05/05 18:26:08;;;;;;;3.28;2.30;;;18.80;99.90;;;;;;10137312;28;20048;-65
2023/05/05 18:30:59;;;;;;;7.03;3.70;;;18.80;99.90;;;;;;10133863;28;20032;-66
2023/05/05 18:35:49;;;;;;;8.90;3.88;;;18.80;99.90;;;;;;10130028;28;20024;-60
2023/05/05 18:40:40;;;;;;;4.53;1.77;;;18.90;99.90;;;;;;10136544;28;20032;-62
2023/05/05 18:45:31;;;;;;;3.72;1.63;;;18.80;99.90;;;;;;10136072;28;20436;-53
2023/05/05 18:50:22;;;;;;;3.95;2.13;;;18.70;99.90;;;;;;10137168;28;20060;-55
2023/05/05 18:55:12;;;;;;;3.55;1.63;;;18.70;99.90;;;;;;10136886;28;20502;-59
2023/05/05 19:00:03;;;;;;;11.55;5.75;;;18.80;99.90;;;;;;10137785;28;20406;-74
2023/05/05 19:04:54;;;;;;;6.70;3.45;;;18.90;99.90;;;;;;10141600;28;20021;-67
2023/05/05 19:09:45;;;;;;;5.70;2.25;;;19.00;99.90;;;;;;10117917;28;20524;-73
2023/05/05 19:14:35;;;;;;;4.18;2.28;;;19.00;99.90;;;;;;10131861;28;20419;-69
2023/05/05 19:19:26;;;;;;;6.35;1.88;;;18.90;99.90;;;;;;10129085;28;20120;-68
2023/05/05 19:24:17;;;;;;;3.22;1.48;;;18.80;99.90;;;;;;10131631;28;20029;-74
2023/05/05 19:29:07;;;;;;;2.80;2.13;;;18.90;99.90;;;;;;10116464;28;20534;-68
2023/05/05 19:34:00;;;;;;;3.33;1.75;;;18.90;99.90;;;;;;10115766;28;20464;-68
2023/05/05 19:38:51;;;;;;;2.28;1.30;;;18.90;99.90;;;;;;10117547;28;20035;-67
2023/05/05 19:43:45;;;;;;;9.55;3.78;;;18.90;99.90;;;;;;10125001;28;20021;-70
2023/05/05 19:48:35;;;;;;;7.03;3.70;;;18.90;99.90;;;;;;10128504;28;20051;-71
2023/05/05 19:53:26;;;;;;;4.00;2.20;;;18.90;99.90;;;;;;10135538;28;20069;-64
2023/05/05 19:58:17;;;;;;;4.82;1.60;;;18.80;99.90;;;;;;10133564;28;20046;-70
2023/05/05 20:03:08;;;;;;;4.78;1.60;;;18.80;99.90;;;;;;10143065;28;20039;-68
2023/05/05 20:07:58;;;;;;;2.15;1.23;;;18.70;99.90;;;;;;10140559;28;20035;-66
2023/05/05 20:12:50;;;;;;;4.22;2.00;;;18.70;99.90;;;;;;10147260;28;20021;-64
2023/05/05 20:17:40;;;;;;;2.72;1.63;;;18.80;99.90;;;;;;10132006;28;20048;-60
2023/05/05 20:22:31;;;;;;;2.00;1.52;;;18.80;99.90;;;;;;10134211;28;20059;-53
2023/05/05 20:27:21;;;;;;;2.53;1.40;;;18.80;99.90;;;;;;10143845;28;20506;-62
2023/05/05 20:32:12;;;;;;;2.47;2.00;;;18.90;99.90;;;;;;10135409;28;20500;-56
2023/05/05 20:37:03;;;;;;;6.03;1.95;;;18.90;99.90;;;;;;10133563;28;20064;-58
2023/05/05 20:41:53;;;;;;;5.38;1.55;;;18.80;99.90;;;;;;10136593;28;20038;-54
2023/05/05 20:46:44;;;;;;;4.70;1.90;;;18.80;99.90;;;;;;10148294;28;20020;-64
2023/05/05 20:51:34;;;;;;;5.13;2.60;;;18.80;99.90;;;;;;10137638;28;20496;-70
2023/05/05 20:56:25;;;;;;;2.20;1.83;;;18.80;99.90;;;;;;10143004;28;20107;-59
2023/05/05 21:01:16;;;;;;;5.15;2.15;;;18.70;99.90;;;;;;10146793;28;20033;-61
2023/05/05 21:06:06;;;;;;;4.20;2.00;;;18.70;99.90;;;;;;10141230;28;20033;-66
2023/05/05 21:10:57;;;;;;;3.20;2.28;;;18.60;99.90;;;;;;10133527;28;20428;-72
2023/05/05 21:15:47;;;;;;;4.22;2.05;;;18.50;99.90;;;;;;10149460;28;20028;-58
2023/05/05 21:20:38;;;;;;;3.85;2.38;;;18.60;99.90;;;;;;10126031;28;20031;-64
2023/05/05 21:25:29;;;;;;;4.75;2.45;;;18.50;99.90;;;;;;10137291;28;20028;-61
2023/05/05 21:30:22;;;;;;;2.92;1.75;;;18.50;99.90;;;;;;10147028;28;20674;-65
2023/05/05 21:35:12;;;;;;;2.90;2.35;;;18.30;99.90;;;;;;10140535;28;20527;-65
2023/05/05 21:40:05;;;;;;;2.13;1.90;;;18.30;99.90;;;;;;10138011;28;20181;-66
2023/05/05 21:44:55;;;;;;;3.78;2.75;;;18.20;99.90;;;;;;10137708;28;20028;-65
2023/05/05 21:49:46;;;;;;;2.75;1.75;;;18.30;99.90;;;;;;10138410;28;20514;-69
2023/05/05 21:54:36;;;;;;;3.58;2.30;;;18.30;99.90;;;;;;10132600;28;20034;-61
2023/05/05 21:59:27;;;;;;;3.50;2.17;;;18.20;99.90;;;;;;10141239;28;20440;-72
2023/05/05 22:04:18;;;;;;;3.00;1.95;;;18.20;99.90;;;;;;10128676;28;20432;-69
2023/05/05 22:09:09;;;;;;;4.18;2.38;;;18.20;99.90;;;;;;10134082;28;20035;-61
2023/05/05 22:14:00;;;;;;;4.72;2.30;;;18.10;99.90;;;;;;10120060;28;20028;-57
2023/05/05 22:18:50;;;;;;;3.92;2.30;;;18.10;99.90;;;;;;10137580;28;20106;-60
2023/05/05 22:23:41;;;;;;;5.05;3.00;;;18.00;99.90;;;;;;10147161;28;20551;-54
2023/05/05 22:28:32;;;;;;;3.25;2.65;;;17.90;99.90;;;;;;10137476;28;20029;-58
2023/05/05 22:33:23;;;;;;;4.50;2.65;;;17.90;99.90;;;;;;10137139;28;20032;-60
2023/05/05 22:38:13;;;;;;;6.00;3.38;;;18.00;99.90;;;;;;10138936;28;20036;-54
2023/05/05 22:43:04;;;;;;;5.78;3.00;;;18.00;99.90;;;;;;10139911;28;20405;-54
2023/05/05 22:47:55;;;;;;;4.30;2.40;;;18.00;99.90;;;;;;10120679;28;20548;-57
2023/05/05 22:52:46;;;;;;;4.63;2.75;;;18.00;99.90;;;;;;10118251;28;20112;-59
2023/05/05 22:57:36;;;;;;;3.90;2.80;;;17.90;99.90;;;;;;10136483;28;20139;-57
2023/05/05 23:02:27;;;;;;;3.78;2.40;;;17.90;99.90;;;;;;10121473;28;20115;-63
2023/05/05 23:07:18;;;;;;;2.80;2.05;;;17.90;99.90;;;;;;10136251;28;20064;-61
2023/05/05 23:12:09;;;;;;;5.22;2.38;;;17.90;99.90;;;;;;10142216;28;20024;-63
2023/05/05 23:16:59;;;;;;;3.65;2.30;;;17.80;99.90;;;;;;10136635;28;20024;-60
2023/05/05 23:21:50;;;;;;;2.40;1.73;;;17.80;99.90;;;;;;10140162;28;20367;-61
2023/05/05 23:26:41;;;;;;;4.10;2.30;;;17.80;99.90;;;;;;10136647;28;20093;-64
2023/05/05 23:31:31;;;;;;;3.05;2.30;;;17.70;99.90;;;;;;10136078;28;20044;-59
2023/05/05 23:36:22;;;;;;;4.78;1.80;;;17.70;99.90;;;;;;10138541;28;20024;-62
2023/05/05 23:41:13;;;;;;;3.67;3.00;;;17.70;99.90;;;;;;10135795;28;20513;-59
2023/05/05 23:46:03;;;;;;;3.63;2.35;;;17.60;99.90;;;;;;10135571;28;20036;-56
2023/05/05 23:50:54;;;;;;;7.88;2.85;;;17.60;99.90;;;;;;10132142;28;20058;-64
2023/05/05 23:55:45;;;;;;;5.55;2.90;;;17.40;99.90;;;;;;10111821;28;20743;-60
